createdAt,value
2023-04-28T00:02:02.814Z,20.75
2023-04-28T00:04:29.708Z,21.58
2023-04-28T00:06:56.663Z,21.10
2023-04-28T00:09:23.215Z,22.60
2023-04-28T00:11:49.699Z,21.65
2023-04-28T00:14:16.868Z,21.08
2023-04-28T00:16:43.753Z,21.38
2023-04-28T00:19:10.871Z,22.58
2023-04-28T00:21:37.309Z,23.17
2023-04-28T00:24:03.831Z,22.48
2023-04-28T00:26:30.281Z,21.80
2023-04-28T00:28:56.743Z,21.33
2023-04-28T00:31:23.184Z,23.90
2023-04-28T00:33:49.912Z,24.40
2023-04-28T00:36:16.314Z,23.38
2023-04-28T00:38:42.724Z,24.42
2023-04-28T00:41:12.729Z,24.08
2023-04-28T00:43:48.954Z,25.88
2023-04-28T00:46:24.631Z,23.48
2023-04-28T00:48:51.426Z,23.80
2023-04-28T00:51:18.021Z,24.23
2023-04-28T00:53:45.126Z,24.50
2023-04-28T00:56:12.291Z,24.65
2023-04-28T00:58:39.546Z,23.77
2023-04-28T01:01:08.039Z,26.73
2023-04-28T01:03:38.014Z,26.40
2023-04-28T01:06:06.237Z,26.55
2023-04-28T01:08:34.512Z,26.20
2023-04-28T01:11:01.986Z,24.52
2023-04-28T01:13:28.953Z,26.17
2023-04-28T01:15:56.606Z,27.23
2023-04-28T01:18:23.727Z,26.70
2023-04-28T01:20:50.221Z,26.98
2023-04-28T01:23:17.775Z,26.80
2023-04-28T01:25:44.340Z,27.45
2023-04-28T01:28:11.745Z,27.33
2023-04-28T01:30:38.407Z,27.67
2023-04-28T01:33:04.957Z,27.15
2023-04-28T01:35:31.484Z,27.80
2023-04-28T01:37:57.911Z,29.60
2023-04-28T01:40:24.766Z,27.70
2023-04-28T01:42:51.479Z,27.05
2023-04-28T01:45:17.964Z,29.20
2023-04-28T01:47:44.510Z,27.63
2023-04-28T01:50:11.534Z,28.92
2023-04-28T01:52:38.037Z,29.75
2023-04-28T01:55:04.962Z,28.90
2023-04-28T01:57:31.742Z,29.15
2023-04-28T01:59:59.496Z,30.42
2023-04-28T02:02:26.009Z,29.92
2023-04-28T02:04:52.680Z,30.23
2023-04-28T02:07:19.213Z,31.63
2023-04-28T02:09:46.353Z,29.38
2023-04-28T02:12:13.166Z,32.47
2023-04-28T02:14:39.643Z,30.80
2023-04-28T02:17:06.242Z,30.40
2023-04-28T02:19:32.694Z,30.05
2023-04-28T02:21:59.127Z,30.23
2023-04-28T02:24:25.592Z,29.20
2023-04-28T02:26:52.012Z,30.38
2023-04-28T02:29:18.412Z,33.15
2023-04-28T02:31:48.067Z,31.33
2023-04-28T02:34:14.848Z,32.33
2023-04-28T02:36:41.467Z,32.22
2023-04-28T02:39:07.894Z,31.15
2023-04-28T02:41:34.650Z,30.52
2023-04-28T02:44:01.094Z,31.75
2023-04-28T02:46:27.605Z,30.67
2023-04-28T02:48:54.040Z,31.17
2023-04-28T02:51:20.625Z,30.30
2023-04-28T02:53:47.234Z,30.55
2023-04-28T02:56:13.890Z,30.92
2023-04-28T02:58:40.365Z,33.00
2023-04-28T03:01:07.094Z,32.80
2023-04-28T03:03:33.746Z,32.15
2023-04-28T03:06:00.260Z,32.42
2023-04-28T03:08:26.873Z,32.67
2023-04-28T03:10:53.332Z,30.30
2023-04-28T03:13:19.783Z,32.72
2023-04-28T03:15:46.188Z,31.35
2023-04-28T03:18:12.651Z,34.35
2023-04-28T03:20:39.088Z,33.58
2023-04-28T03:23:05.545Z,33.78
2023-04-28T03:25:32.074Z,32.85
2023-04-28T03:27:58.576Z,34.50
2023-04-28T03:30:24.991Z,33.47
2023-04-28T03:32:51.717Z,33.22
2023-04-28T03:35:18.320Z,33.75
2023-04-28T03:37:44.894Z,32.88
2023-04-28T03:40:11.792Z,35.30
2023-04-28T03:42:38.205Z,35.58
2023-04-28T03:45:04.889Z,34.15
2023-04-28T03:47:31.292Z,34.25
2023-04-28T03:49:58.857Z,34.38
2023-04-28T03:52:26.216Z,35.53
2023-04-28T03:54:52.616Z,34.47
2023-04-28T03:57:19.038Z,33.85
2023-04-28T03:59:45.890Z,36.35
2023-04-28T04:02:12.301Z,37.03
2023-04-28T04:04:38.985Z,34.63
2023-04-28T04:07:06.094Z,35.53
2023-04-28T04:09:32.567Z,34.60
2023-04-28T04:11:58.996Z,35.50
2023-04-28T04:14:25.726Z,34.47
2023-04-28T04:16:52.177Z,33.95
2023-04-28T04:19:18.577Z,36.55
2023-04-28T04:21:45.086Z,33.75
2023-04-28T04:24:11.856Z,35.03
2023-04-28T04:26:38.296Z,35.35
2023-04-28T04:29:04.777Z,34.72
2023-04-28T04:31:31.722Z,34.63
2023-04-28T04:33:58.299Z,34.70
2023-04-28T04:36:24.893Z,34.38
2023-04-28T04:38:53.257Z,37.67
2023-04-28T04:41:21.274Z,34.78
2023-04-28T04:43:47.757Z,33.85
2023-04-28T04:46:14.852Z,32.28
2023-04-28T04:48:41.366Z,33.67
2023-04-28T04:51:07.753Z,33.25
2023-04-28T04:53:34.275Z,33.33
2023-04-28T04:56:01.449Z,31.42
2023-04-28T04:58:28.118Z,33.38
2023-04-28T05:00:54.708Z,31.73
2023-04-28T05:03:21.829Z,31.70
2023-04-28T05:05:48.758Z,29.75
2023-04-28T05:08:15.220Z,31.90
2023-04-28T05:10:41.762Z,31.55
2023-04-28T05:13:08.713Z,30.58
2023-04-28T05:15:35.204Z,31.15
2023-04-28T05:18:06.467Z,30.67
2023-04-28T05:20:32.929Z,30.40
2023-04-28T05:22:59.339Z,29.42
2023-04-28T05:25:26.355Z,28.25
2023-04-28T05:27:52.974Z,27.65
2023-04-28T05:30:19.500Z,27.00
2023-04-28T05:32:46.220Z,26.55
2023-04-28T05:35:12.717Z,24.98
2023-04-28T05:37:39.788Z,23.67
2023-04-28T05:40:07.879Z,22.80
2023-04-28T05:42:34.369Z,23.17
2023-04-28T05:45:00.973Z,22.40
2023-04-28T05:47:27.471Z,22.52
2023-04-28T05:49:53.972Z,22.15
2023-04-28T05:52:20.360Z,20.83
2023-04-28T05:54:46.788Z,22.08
2023-04-28T05:57:14.998Z,19.75
2023-04-28T05:59:41.465Z,20.88
2023-04-28T06:02:07.934Z,20.10
2023-04-28T06:04:34.518Z,18.35
2023-04-28T06:07:01.308Z,18.10
2023-04-28T06:09:27.765Z,18.27
2023-04-28T06:11:54.310Z,17.05
2023-04-28T06:14:20.792Z,17.17
2023-04-28T06:16:47.279Z,16.75
2023-04-28T06:19:14.640Z,16.42
2023-04-28T06:21:41.307Z,15.48
2023-04-28T06:24:07.719Z,15.80
2023-04-28T06:26:34.188Z,15.32
2023-04-28T06:29:00.698Z,15.23
2023-04-28T06:31:27.104Z,15.27
2023-04-28T06:33:53.970Z,14.88
2023-04-28T06:36:20.579Z,14.40
2023-04-28T06:38:47.237Z,14.63
2023-04-28T06:41:13.673Z,14.18
2023-04-28T06:43:40.146Z,15.40
2023-04-28T06:46:07.085Z,15.25
2023-04-28T06:48:33.833Z,15.45
2023-04-28T06:51:00.467Z,13.63
2023-04-28T06:53:27.083Z,13.48
2023-04-28T06:55:53.653Z,14.20
2023-04-28T06:58:20.801Z,14.07
2023-04-28T07:00:47.385Z,13.63
2023-04-28T07:03:13.970Z,13.50
2023-04-28T07:05:40.577Z,13.90
2023-04-28T07:08:07.296Z,13.48
2023-04-28T07:10:33.731Z,13.40
2023-04-28T07:13:00.248Z,13.20
2023-04-28T07:15:27.369Z,13.32
2023-04-28T07:17:53.885Z,12.68
2023-04-28T07:20:20.487Z,13.48
2023-04-28T07:22:46.947Z,13.00
2023-04-28T07:25:16.506Z,13.57
2023-04-28T07:27:42.945Z,12.80
2023-04-28T07:30:25.988Z,12.88
2023-04-28T07:32:55.578Z,12.90
2023-04-28T07:35:22.635Z,13.23
2023-04-28T07:37:49.292Z,13.40
2023-04-28T07:40:15.940Z,12.98
2023-04-28T07:42:42.521Z,13.80
2023-04-28T07:45:09.486Z,12.93
2023-04-28T07:47:36.536Z,13.13
2023-04-28T07:50:06.272Z,12.27
2023-04-28T07:52:33.482Z,12.45
2023-04-28T07:55:00.111Z,12.93
2023-04-28T07:57:26.837Z,13.25
2023-04-28T07:59:53.243Z,13.57
2023-04-28T08:02:20.657Z,12.05
2023-04-28T08:04:47.361Z,11.82
2023-04-28T08:07:14.677Z,12.55
2023-04-28T08:09:44.030Z,12.32
2023-04-28T08:12:10.758Z,12.53
2023-04-28T08:14:37.294Z,13.18
2023-04-28T08:17:03.988Z,12.18
2023-04-28T08:19:30.823Z,12.50
2023-04-28T08:21:57.454Z,12.80
2023-04-28T08:24:23.839Z,13.05
2023-04-28T08:26:51.102Z,13.07
2023-04-28T08:29:17.536Z,11.93
2023-04-28T08:31:44.036Z,11.45
2023-04-28T08:34:10.867Z,12.85
2023-04-28T08:36:37.329Z,12.52
2023-04-28T08:39:05.128Z,11.63
2023-04-28T08:41:33.080Z,13.43
2023-04-28T08:43:59.555Z,12.68
2023-04-28T08:46:27.771Z,12.85
2023-04-28T08:49:01.076Z,12.65
2023-04-28T08:51:34.876Z,13.23
2023-04-28T08:56:36.153Z,14.18
2023-04-28T08:59:04.609Z,12.95
2023-04-28T09:01:31.991Z,12.68
2023-04-28T09:04:02.547Z,13.38
2023-04-28T09:06:37.278Z,12.63
2023-04-28T09:09:20.184Z,13.68
2023-04-28T09:11:53.630Z,13.18
2023-04-28T09:14:20.022Z,13.50
2023-04-28T09:16:46.816Z,13.80
2023-04-28T09:19:13.505Z,13.80
2023-04-28T09:21:51.292Z,13.93
2023-04-28T09:24:40.408Z,14.10
2023-04-28T09:27:22.022Z,13.82
2023-04-28T09:29:53.977Z,14.55
2023-04-28T09:32:22.510Z,13.75
2023-04-28T09:34:56.564Z,13.98
2023-04-28T09:37:25.925Z,12.98
2023-04-28T09:39:54.533Z,13.03
2023-04-28T09:42:40.709Z,13.57
2023-04-28T09:45:09.686Z,12.70
2023-04-28T09:47:39.830Z,13.38
2023-04-28T09:52:36.684Z,13.00
2023-04-28T09:55:08.676Z,13.02
2023-04-28T09:57:36.477Z,13.10
2023-04-28T10:00:06.756Z,13.60
2023-04-28T10:05:13.140Z,12.63
2023-04-28T10:07:41.214Z,12.90
2023-04-28T10:10:08.803Z,12.40
2023-04-28T10:12:38.370Z,13.45
2023-04-28T10:15:06.332Z,12.27
2023-04-28T10:17:35.091Z,12.70
2023-04-28T10:20:03.465Z,13.50
2023-04-28T10:22:57.321Z,13.45
2023-04-28T10:25:28.128Z,13.02
2023-04-28T10:27:54.754Z,13.38
2023-04-28T10:30:28.287Z,13.18
2023-04-28T10:33:23.084Z,13.10
2023-04-28T10:35:49.828Z,14.32
2023-04-28T10:38:18.194Z,14.07
2023-04-28T11:42:14.116Z,13.02
2023-04-28T11:44:41.035Z,12.60
2023-04-28T11:47:07.514Z,12.18
2023-04-28T11:49:45.436Z,13.73
2023-04-28T11:52:12.749Z,13.15
2023-04-28T11:54:42.350Z,13.77
2023-04-28T11:57:18.058Z,13.25
2023-04-28T11:59:44.702Z,13.63
2023-04-28T12:02:11.391Z,14.15
2023-04-28T12:04:40.542Z,14.85
2023-04-28T12:07:14.986Z,13.45
2023-04-28T12:09:49.575Z,13.63
2023-04-28T12:15:05.214Z,14.52
2023-04-28T12:17:34.681Z,13.93
2023-04-28T12:20:04.064Z,13.48
2023-04-28T12:22:31.423Z,13.73
2023-04-28T12:25:08.476Z,13.68
2023-04-28T12:27:39.082Z,15.05
2023-04-28T12:30:20.879Z,14.43
2023-04-28T12:32:48.032Z,13.90
2023-04-28T12:35:14.585Z,13.57
2023-04-28T12:37:42.536Z,13.43
2023-04-28T12:40:09.785Z,13.80
2023-04-28T12:42:36.650Z,13.43
2023-04-28T12:45:03.377Z,13.77
2023-04-28T12:47:29.997Z,14.00
2023-04-28T12:49:56.607Z,14.10
2023-04-28T12:52:23.230Z,13.68
2023-04-28T12:54:49.948Z,13.55
2023-04-28T12:57:18.431Z,13.13
2023-04-28T12:59:47.122Z,13.10
2023-04-28T13:02:17.256Z,13.77
2023-04-28T13:07:13.430Z,13.63
2023-04-28T13:09:40.097Z,13.20
2023-04-28T13:12:07.492Z,14.05
2023-04-28T13:14:34.441Z,13.10
2023-04-28T13:17:01.664Z,12.90
2023-04-28T13:19:29.626Z,13.18
2023-04-28T13:21:56.218Z,13.68
2023-04-28T13:24:22.902Z,12.85
2023-04-28T13:26:49.396Z,13.75
2023-04-28T13:29:15.937Z,14.50
2023-04-28T13:31:42.437Z,14.88
2023-04-28T13:34:12.006Z,14.30
2023-04-28T13:36:38.583Z,13.95
2023-04-28T13:39:06.198Z,14.50
2023-04-28T13:41:32.838Z,14.48
2023-04-28T13:43:59.398Z,14.48
2023-04-28T13:46:25.869Z,14.85
2023-04-28T13:48:52.311Z,14.05
2023-04-28T13:51:18.796Z,14.00
2023-04-28T13:53:45.309Z,14.10
2023-04-28T13:56:12.093Z,14.52
2023-04-28T13:58:38.985Z,14.25
2023-04-28T14:01:05.583Z,14.32
2023-04-28T14:03:32.251Z,15.00
2023-04-28T14:05:59.456Z,15.10
2023-04-28T14:08:27.845Z,14.40
2023-04-28T14:10:54.824Z,15.18
2023-04-28T14:13:21.413Z,14.10
2023-04-28T14:15:58.610Z,14.13
2023-04-28T14:18:26.537Z,13.98
2023-04-28T14:20:54.409Z,14.50
2023-04-28T14:23:23.491Z,14.98
2023-04-28T14:25:50.444Z,14.50
2023-04-28T14:28:17.257Z,15.30
2023-04-28T14:30:44.028Z,15.27
2023-04-28T14:33:10.623Z,17.52
2023-04-28T14:35:37.480Z,19.45
2023-04-28T14:38:04.208Z,20.08
2023-04-28T14:40:30.870Z,20.83
2023-04-28T14:42:57.760Z,19.75
2023-04-28T14:45:24.444Z,20.67
2023-04-28T14:47:51.182Z,20.05
2023-04-28T14:50:22.196Z,21.00
2023-04-28T14:52:48.704Z,20.92
2023-04-28T14:55:15.347Z,21.75
2023-04-28T14:57:42.088Z,20.73
2023-04-28T15:00:10.989Z,21.55
2023-04-28T15:02:37.930Z,22.27
2023-04-28T15:05:05.030Z,21.80
2023-04-28T15:07:32.508Z,21.20
2023-04-28T15:09:59.452Z,22.27
2023-04-28T15:12:26.285Z,21.85
2023-04-28T15:14:53.772Z,21.83
2023-04-28T15:17:21.541Z,22.83
2023-04-28T15:19:47.998Z,21.98
2023-04-28T15:22:14.511Z,23.27
2023-04-28T15:24:43.581Z,22.15
2023-04-28T15:27:10.205Z,22.45
2023-04-28T15:29:36.944Z,21.88
2023-04-28T15:32:03.604Z,22.35
2023-04-28T15:34:29.998Z,24.92
2023-04-28T15:36:56.724Z,26.77
2023-04-28T15:39:25.037Z,25.80
2023-04-28T15:41:52.860Z,24.63
2023-04-28T15:44:19.462Z,24.60
2023-04-28T15:46:46.062Z,25.15
2023-04-28T15:49:13.188Z,22.65
2023-04-28T15:51:39.608Z,22.90
2023-04-28T15:54:06.011Z,22.77
2023-04-28T15:56:33.531Z,23.52
2023-04-28T15:58:59.967Z,21.77
2023-04-28T16:01:26.466Z,21.92
2023-04-28T16:03:53.076Z,21.08
2023-04-28T16:06:19.679Z,21.02
2023-04-28T16:08:46.160Z,20.40
2023-04-28T16:11:17.663Z,20.45
2023-04-28T16:13:44.974Z,19.50
2023-04-28T16:16:12.360Z,20.10
2023-04-28T16:18:39.095Z,19.88
2023-04-28T16:21:05.710Z,19.00
2023-04-28T16:23:32.321Z,19.55
2023-04-28T16:25:58.728Z,19.45
2023-04-28T16:28:25.177Z,18.90
2023-04-28T16:30:51.836Z,19.40
2023-04-28T16:33:18.333Z,19.35
2023-04-28T16:35:44.821Z,20.65
2023-04-28T16:38:12.242Z,20.40
2023-04-28T16:40:38.999Z,20.20
2023-04-28T16:43:05.476Z,22.80
2023-04-28T16:45:31.914Z,23.38
2023-04-28T16:47:58.377Z,23.00
2023-04-28T16:50:24.811Z,24.52
2023-04-28T16:52:51.217Z,23.50
2023-04-28T16:55:18.756Z,24.83
2023-04-28T16:58:13.673Z,24.77
2023-04-28T17:00:40.191Z,25.50
2023-04-28T17:03:07.012Z,25.42
2023-04-28T17:05:34.089Z,27.58
2023-04-28T17:08:00.507Z,26.73
2023-04-28T17:10:27.022Z,27.60
2023-04-28T17:12:59.611Z,27.67
2023-04-28T17:15:27.146Z,27.35
2023-04-28T17:17:53.758Z,27.73
2023-04-28T17:20:21.450Z,27.27
2023-04-28T17:22:49.979Z,32.53
2023-04-28T17:25:17.057Z,27.27
2023-04-28T17:27:43.522Z,28.67
2023-04-28T17:30:14.247Z,29.15
2023-04-28T17:32:40.928Z,29.92
2023-04-28T17:35:07.990Z,30.90
2023-04-28T17:37:37.341Z,32.25
2023-04-28T17:40:04.636Z,30.83
2023-04-28T17:42:33.967Z,29.45
2023-04-28T17:45:00.390Z,30.47
2023-04-28T17:47:26.945Z,31.27
2023-04-28T17:49:54.242Z,32.05
2023-04-28T17:52:20.771Z,32.75
2023-04-28T17:54:47.261Z,34.47
2023-04-28T17:57:14.325Z,35.95
2023-04-28T17:59:42.539Z,36.88
2023-04-28T18:02:09.963Z,35.95
2023-04-28T18:04:37.261Z,38.03
2023-04-28T18:07:03.849Z,38.08
2023-04-28T18:09:31.657Z,39.70
2023-04-28T18:11:58.185Z,41.90
2023-04-28T18:14:24.614Z,44.45
2023-04-28T18:16:51.292Z,60.58
2023-04-28T18:19:17.908Z,52.85
2023-04-28T18:21:44.358Z,51.03
2023-04-28T18:24:10.717Z,49.67
2023-04-28T18:26:37.143Z,53.70
2023-04-28T18:29:03.575Z,55.70
2023-04-28T18:31:30.250Z,56.17
2023-04-28T18:33:57.074Z,54.35
2023-04-28T18:36:23.501Z,55.58
2023-04-28T18:38:49.902Z,56.35
2023-04-28T18:41:18.031Z,54.63
2023-04-28T18:43:44.685Z,49.38
2023-04-28T18:46:11.220Z,51.47
2023-04-28T18:48:37.931Z,52.15
2023-04-28T18:51:05.470Z,50.97
2023-04-28T18:53:32.427Z,52.30
2023-04-28T18:55:59.014Z,52.97
2023-04-28T18:58:25.588Z,51.75
2023-04-28T19:00:52.824Z,51.30
2023-04-28T19:03:20.057Z,50.85
2023-04-28T19:05:46.979Z,51.20
2023-04-28T19:08:13.740Z,51.58
2023-04-28T19:10:41.098Z,51.40
2023-04-28T19:13:07.963Z,51.55
2023-04-28T19:15:34.987Z,52.60
2023-04-28T19:18:02.061Z,53.42
2023-04-28T19:20:28.505Z,50.10
2023-04-28T19:22:55.011Z,52.72
2023-04-28T19:25:21.455Z,52.40
2023-04-28T19:27:48.080Z,52.33
2023-04-28T19:30:15.107Z,53.35
2023-04-28T19:32:42.378Z,52.53
2023-04-28T19:35:09.516Z,50.83
2023-04-28T19:37:36.304Z,52.17
2023-04-28T19:40:07.180Z,53.95
2023-04-28T19:42:35.127Z,52.78
2023-04-28T19:45:02.672Z,51.83
2023-04-28T19:47:33.645Z,52.28
2023-04-28T19:50:00.422Z,54.17
2023-04-28T19:52:27.872Z,53.30
2023-04-28T19:54:54.786Z,56.83
2023-04-28T19:57:21.861Z,53.97
2023-04-28T19:59:49.648Z,53.47
2023-04-28T20:02:17.036Z,53.42
2023-04-28T20:04:43.730Z,52.10
2023-04-28T20:07:10.603Z,52.28
2023-04-28T20:09:37.926Z,49.80
2023-04-28T20:12:06.702Z,51.33
2023-04-28T20:14:34.208Z,50.85
2023-04-28T20:17:04.418Z,52.10
2023-04-28T20:19:31.306Z,52.75
2023-04-28T20:21:57.831Z,53.78
2023-04-28T20:24:24.300Z,55.13
2023-04-28T20:26:51.388Z,53.90
2023-04-28T20:29:17.855Z,54.55
2023-04-28T20:31:44.323Z,54.90
2023-04-28T20:34:10.835Z,54.38
2023-04-28T20:36:37.924Z,52.47
2023-04-28T20:39:04.855Z,48.97
2023-04-28T20:41:31.424Z,51.08
2023-04-28T20:43:57.808Z,50.13
2023-04-28T20:46:24.354Z,49.95
2023-04-28T20:48:53.523Z,49.40
2023-04-28T20:51:19.986Z,49.00
2023-04-28T20:53:46.561Z,50.30
2023-04-28T20:56:12.962Z,50.13
2023-04-28T20:58:42.525Z,50.47
2023-04-28T21:01:09.687Z,49.85
2023-04-28T21:03:36.318Z,50.17
2023-04-28T21:06:02.835Z,49.38
2023-04-28T21:08:30.188Z,49.17
2023-04-28T21:10:56.617Z,48.88
2023-04-28T21:13:23.026Z,48.40
2023-04-28T21:15:49.804Z,48.28
2023-04-28T21:18:16.295Z,49.42
2023-04-28T21:20:42.700Z,49.92
2023-04-28T21:23:10.036Z,48.97
2023-04-28T21:25:36.785Z,49.55
2023-04-28T21:28:03.380Z,50.42
2023-04-28T21:30:29.998Z,49.42
2023-04-28T21:32:56.606Z,49.40
2023-04-28T21:35:23.051Z,50.63
2023-04-28T21:37:49.454Z,50.38
2023-04-28T21:40:17.198Z,50.17
2023-04-28T21:42:45.439Z,49.60
2023-04-28T21:45:11.963Z,50.38
2023-04-28T21:47:38.900Z,50.65
2023-04-28T21:50:07.069Z,49.13
2023-04-28T21:52:33.500Z,52.22
2023-04-28T21:54:59.913Z,50.03
2023-04-28T21:57:26.395Z,52.28
2023-04-28T21:59:53.132Z,49.00
2023-04-28T22:02:19.832Z,49.35
2023-04-28T22:04:46.836Z,49.83
2023-04-28T22:07:13.265Z,49.08
2023-04-28T22:09:39.693Z,47.45
2023-04-28T22:12:06.089Z,48.08
2023-04-28T22:14:40.454Z,47.17
2023-04-28T22:17:07.963Z,47.28
2023-04-28T22:19:34.688Z,46.63
2023-04-28T22:22:01.162Z,47.75
2023-04-28T22:24:27.879Z,47.22
2023-04-28T22:26:54.863Z,46.40
2023-04-28T22:29:21.525Z,45.83
2023-04-28T22:31:48.134Z,44.40
2023-04-28T22:34:14.660Z,45.05
2023-04-28T22:36:41.497Z,44.70
2023-04-28T22:39:08.139Z,46.40
2023-04-28T22:41:34.523Z,44.75
2023-04-28T22:44:01.194Z,44.30
2023-04-28T22:46:28.753Z,44.20
2023-04-28T22:48:55.558Z,43.80
2023-04-28T22:51:22.567Z,43.88
2023-04-28T22:53:49.009Z,43.78
2023-04-28T22:56:16.000Z,45.85
2023-04-28T22:58:42.556Z,46.55
2023-04-28T23:01:09.151Z,44.55
2023-04-28T23:03:35.982Z,44.85
2023-04-28T23:06:02.593Z,46.65
2023-04-28T23:08:29.027Z,44.80
2023-04-28T23:10:58.914Z,46.45
2023-04-28T23:13:25.500Z,46.92
2023-04-28T23:15:52.195Z,46.47
2023-04-28T23:18:18.826Z,46.28
2023-04-28T23:20:49.008Z,46.50
2023-04-28T23:23:16.001Z,46.72
2023-04-28T23:25:45.447Z,47.63
2023-04-28T23:28:12.289Z,47.70
2023-04-28T23:30:38.769Z,46.85
2023-04-28T23:33:05.297Z,47.72
2023-04-28T23:35:33.060Z,48.88
2023-04-28T23:37:59.629Z,50.20
2023-04-28T23:40:26.862Z,49.42
2023-04-28T23:42:53.505Z,51.13
2023-04-28T23:45:19.958Z,50.10
2023-04-28T23:47:47.192Z,49.67
2023-04-28T23:50:13.908Z,50.33
2023-04-28T23:52:40.509Z,48.20
2023-04-28T23:55:12.762Z,49.45
2023-04-28T23:57:39.787Z,48.20
